createdAt,value
2022-09-25T00:00:14.782Z,11.32
2022-09-25T00:02:17.398Z,8.50
2022-09-25T00:04:20.148Z,8.13
2022-09-25T00:06:25.179Z,8.73
2022-09-25T00:08:27.860Z,7.38
2022-09-25T00:10:30.927Z,7.30
2022-09-25T06:47:03.079Z,10.00
2022-09-25T06:49:05.789Z,9.68
2022-09-25T06:51:09.431Z,8.63
2022-09-25T06:53:12.269Z,8.88
2022-09-25T06:55:14.880Z,8.50
2022-09-25T06:57:17.431Z,8.68
2022-09-25T06:59:19.939Z,8.18
2022-09-25T07:01:22.570Z,8.90
2022-09-25T07:03:44.158Z,8.57
2022-09-25T07:05:48.329Z,7.93
2022-09-25T07:07:50.972Z,7.68
2022-09-25T07:09:53.534Z,7.43
2022-09-25T07:11:56.138Z,7.35
2022-09-25T07:13:58.747Z,7.30
2022-09-25T07:16:03.013Z,7.20
2022-09-25T07:18:06.051Z,7.65
2022-09-25T07:20:14.026Z,7.70
2022-09-25T07:22:16.606Z,8.15
2022-09-25T07:24:19.244Z,8.63
2022-09-25T07:26:24.055Z,8.68
2022-09-25T07:28:26.615Z,8.68
2022-09-25T07:30:30.116Z,8.48
2022-09-25T07:32:32.902Z,8.75
2022-09-25T07:34:36.037Z,9.23
2022-09-25T07:36:42.536Z,9.52
2022-09-25T07:38:46.194Z,10.07
2022-09-25T07:40:50.140Z,9.60
2022-09-25T07:42:52.946Z,9.10
2022-09-25T07:44:55.537Z,9.63
2022-09-25T07:46:58.068Z,10.73
2022-09-25T07:49:00.916Z,10.43
2022-09-25T07:51:03.881Z,9.70
2022-09-25T07:53:07.769Z,10.25
2022-09-25T07:55:12.729Z,10.82
2022-09-25T07:57:15.324Z,10.93
2022-09-25T07:59:17.975Z,11.43
2022-09-25T08:01:20.657Z,9.50
2022-09-25T08:03:23.266Z,9.73
2022-09-25T08:05:26.338Z,10.18
2022-09-25T08:07:29.122Z,10.07
2022-09-25T08:09:33.037Z,9.45
2022-09-25T08:11:35.647Z,9.57
2022-09-25T08:13:39.336Z,10.07
2022-09-25T08:15:41.984Z,9.80
2022-09-25T08:17:44.854Z,9.75
2022-09-25T08:19:47.422Z,10.35
2022-09-25T08:21:50.479Z,9.82
2022-09-25T08:23:55.437Z,9.88
2022-09-25T08:25:59.651Z,10.38
2022-09-25T08:28:02.990Z,10.13
2022-09-25T08:30:07.043Z,9.80
2022-09-25T08:32:09.615Z,9.75
2022-09-25T08:34:38.927Z,9.48
2022-09-25T08:36:38.147Z,10.23
2022-09-25T08:38:40.790Z,10.38
2022-09-25T08:40:52.432Z,9.93
2022-09-25T08:42:58.441Z,9.90
2022-09-25T08:45:22.678Z,10.07
2022-09-25T08:47:45.779Z,10.68
2022-09-25T08:50:06.639Z,10.07
2022-09-25T08:52:14.591Z,10.02
2022-09-25T08:54:21.919Z,10.50
2022-09-25T08:56:25.637Z,10.25
2022-09-25T08:58:35.421Z,10.73
2022-09-25T09:00:38.769Z,9.68
2022-09-25T09:02:45.334Z,9.38
2022-09-25T09:04:51.702Z,9.55
2022-09-25T09:07:25.805Z,9.50
2022-09-25T09:09:29.692Z,9.23
2022-09-25T09:11:37.209Z,9.25
2022-09-25T09:13:47.163Z,9.18
2022-09-25T09:15:56.872Z,9.07
2022-09-25T09:18:02.310Z,8.82
2022-09-25T09:20:18.478Z,9.27
2022-09-25T09:22:27.568Z,8.35
2022-09-25T09:24:41.426Z,8.85
2022-09-25T09:26:57.508Z,8.80
2022-09-25T09:29:14.063Z,8.43
2022-09-25T09:31:26.514Z,9.00
2022-09-25T09:33:43.908Z,8.35
2022-09-25T09:35:57.345Z,9.02
2022-09-25T09:38:11.626Z,9.00
2022-09-25T09:40:26.723Z,8.45
2022-09-25T09:42:38.166Z,8.38
2022-09-25T09:44:59.345Z,8.32
2022-09-25T09:47:09.710Z,8.60
2022-09-25T09:49:18.257Z,8.98
2022-09-25T09:51:25.277Z,7.80
2022-09-25T09:53:35.103Z,8.25
2022-09-25T09:55:43.240Z,8.50
2022-09-25T09:57:48.592Z,8.45
2022-09-25T10:00:02.015Z,8.88
2022-09-25T10:02:20.651Z,6.60
2022-09-25T10:04:27.992Z,7.28
2022-09-25T10:06:34.290Z,7.07
2022-09-25T10:08:37.438Z,6.88
2022-09-25T10:10:42.906Z,6.72
2022-09-25T10:12:50.885Z,7.57
2022-09-25T10:14:55.495Z,6.40
2022-09-25T10:16:58.547Z,7.10
2022-09-25T10:19:06.458Z,6.40
2022-09-25T10:21:14.968Z,6.53
2022-09-25T10:23:31.158Z,6.40
2022-09-25T10:25:38.765Z,6.15
2022-09-25T10:27:46.026Z,7.20
2022-09-25T10:30:04.081Z,7.63
2022-09-25T10:32:07.315Z,6.90
2022-09-25T10:34:22.275Z,6.72
2022-09-25T10:36:32.828Z,5.47
2022-09-25T10:38:39.179Z,5.25
2022-09-25T10:40:43.084Z,6.13
2022-09-25T10:42:45.752Z,6.80
2022-09-25T10:44:54.152Z,6.63
2022-09-25T10:47:49.201Z,5.80
2022-09-25T10:50:09.330Z,5.70
2022-09-25T10:52:13.874Z,6.20
2022-09-25T10:54:17.542Z,6.85
2022-09-25T10:56:24.271Z,6.60
2022-09-25T10:58:33.391Z,7.47
2022-09-25T11:00:43.075Z,7.30
2022-09-25T11:02:48.844Z,8.38
2022-09-25T11:04:52.634Z,7.60
2022-09-25T11:06:58.347Z,7.20
2022-09-25T11:09:07.864Z,8.18
2022-09-25T11:11:14.140Z,7.53
2022-09-25T11:13:24.328Z,7.43
2022-09-25T11:15:28.701Z,8.40
2022-09-25T11:17:33.878Z,7.65
2022-09-25T11:19:39.229Z,8.38
2022-09-25T11:21:49.570Z,8.27
2022-09-25T11:24:08.833Z,7.75
2022-09-25T11:26:19.620Z,8.18
2022-09-25T11:28:31.961Z,7.95
2022-09-25T11:30:41.730Z,7.20
2022-09-25T11:32:52.644Z,8.10
2022-09-25T11:35:29.719Z,8.48
2022-09-25T11:37:39.655Z,8.20
2022-09-25T11:40:13.750Z,8.27
2022-09-25T11:42:25.729Z,7.45
2022-09-25T11:44:34.231Z,7.57
2022-09-25T11:46:50.276Z,7.22
2022-09-25T11:49:01.875Z,7.47
2022-09-25T11:51:20.787Z,8.15
2022-09-25T11:53:38.861Z,7.38
2022-09-25T11:56:04.364Z,7.93
2022-09-25T11:58:17.802Z,7.70
2022-09-25T12:00:24.535Z,7.15
2022-09-25T12:02:37.277Z,7.95
2022-09-25T12:05:15.633Z,8.02
2022-09-25T12:07:32.898Z,7.45
2022-09-25T12:09:47.083Z,7.78
2022-09-25T12:11:58.896Z,7.72
2022-09-25T12:16:17.058Z,7.78
2022-09-25T12:18:33.319Z,8.38
2022-09-25T12:20:48.442Z,8.70
2022-09-25T12:23:02.531Z,7.60
2022-09-25T12:25:12.397Z,8.35
2022-09-25T12:27:22.307Z,8.32
2022-09-25T12:29:49.083Z,8.82
2022-09-25T12:32:00.604Z,9.25
2022-09-25T12:34:14.758Z,9.70
2022-09-25T12:36:22.481Z,8.75
2022-09-25T12:38:34.634Z,9.48
2022-09-25T12:40:41.537Z,9.00
2022-09-25T12:42:48.121Z,8.52
2022-09-25T12:44:57.225Z,8.93
2022-09-25T12:47:04.475Z,8.38
2022-09-25T12:49:13.566Z,8.80
2022-09-25T12:51:19.837Z,8.65
2022-09-25T12:53:30.881Z,8.20
2022-09-25T12:55:38.275Z,9.02
2022-09-25T12:57:47.636Z,8.70
2022-09-25T12:59:55.500Z,9.23
2022-09-25T13:02:04.844Z,9.00
2022-09-25T13:04:19.299Z,8.00
2022-09-25T13:06:29.446Z,9.35
2022-09-25T13:08:41.712Z,7.85
2022-09-25T13:10:50.144Z,8.35
2022-09-25T13:12:55.492Z,8.75
2022-09-25T13:15:02.287Z,8.10
2022-09-25T13:17:04.924Z,8.88
2022-09-25T13:19:13.143Z,8.45
2022-09-25T13:21:26.896Z,8.43
2022-09-25T13:23:34.751Z,8.82
2022-09-25T13:25:45.057Z,8.13
2022-09-25T13:27:48.503Z,7.97
2022-09-25T13:29:59.784Z,7.70
2022-09-25T13:32:08.998Z,7.68
2022-09-25T13:34:14.236Z,8.43
2022-09-25T13:36:33.042Z,8.23
2022-09-25T13:38:58.437Z,7.60
2022-09-25T13:41:02.996Z,7.95
2022-09-25T13:43:20.584Z,8.38
2022-09-25T13:45:33.509Z,8.20
2022-09-25T13:48:06.936Z,7.47
2022-09-25T13:50:26.550Z,7.40
2022-09-25T13:52:30.104Z,7.18
2022-09-25T13:54:34.354Z,6.72
2022-09-25T13:56:49.402Z,7.35
2022-09-25T13:59:27.921Z,7.50
2022-09-25T14:01:37.808Z,7.93
2022-09-25T14:03:44.113Z,7.72
2022-09-25T14:05:46.733Z,7.28
2022-09-25T14:07:54.778Z,7.35
2022-09-25T14:10:00.022Z,6.82
2022-09-25T14:12:12.598Z,6.78
2022-09-25T14:14:33.284Z,7.10
2022-09-25T14:16:53.346Z,7.32
2022-09-25T14:18:58.328Z,7.00
2022-09-25T14:21:01.855Z,7.13
2022-09-25T14:23:07.968Z,8.80
2022-09-25T14:25:32.836Z,7.53
2022-09-25T14:27:36.758Z,7.72
2022-09-25T14:29:42.216Z,7.53
2022-09-25T14:31:58.245Z,7.15
2022-09-25T14:34:37.783Z,8.05
2022-09-25T14:36:53.698Z,8.63
2022-09-25T14:39:09.572Z,7.80
2022-09-25T14:41:30.431Z,8.23
2022-09-25T14:43:54.469Z,7.70
2022-09-25T14:46:04.484Z,8.50
2022-09-25T14:48:15.546Z,7.57
2022-09-25T14:50:23.381Z,7.93
2022-09-25T14:52:28.467Z,8.27
2022-09-25T14:54:36.475Z,8.70
2022-09-25T14:56:39.428Z,8.75
2022-09-25T14:58:48.001Z,8.52
2022-09-25T15:00:53.719Z,8.20
2022-09-25T15:02:58.224Z,8.10
2022-09-25T15:05:16.891Z,7.75
2022-09-25T15:07:23.907Z,8.00
2022-09-25T15:09:31.044Z,8.32
2022-09-25T15:11:41.421Z,8.60
2022-09-25T15:13:46.541Z,8.20
2022-09-25T15:16:10.097Z,8.02
2022-09-25T15:18:15.708Z,8.15
2022-09-25T15:20:21.536Z,8.38
2022-09-25T15:22:26.354Z,8.52
2022-09-25T15:24:31.771Z,8.63
2022-09-25T15:26:39.308Z,8.40
2022-09-25T15:28:42.214Z,9.60
2022-09-25T15:47:54.853Z,12.13
2022-09-25T15:49:57.520Z,12.82
2022-09-25T15:52:03.941Z,13.55
2022-09-25T15:54:32.466Z,13.02
2022-09-25T15:56:40.383Z,13.52
2022-09-25T15:58:46.083Z,13.40
2022-09-25T16:01:16.437Z,13.73
2022-09-25T16:03:40.594Z,13.60
2022-09-25T16:05:51.724Z,13.27
2022-09-25T16:08:14.898Z,13.45
2022-09-25T16:10:31.763Z,14.68
2022-09-25T16:12:35.998Z,13.82
2022-09-25T16:14:38.711Z,13.02
2022-09-25T16:16:47.341Z,13.15
2022-09-25T16:18:54.300Z,13.82
2022-09-25T16:21:07.705Z,14.25
2022-09-25T16:23:23.834Z,13.05
2022-09-25T16:25:31.789Z,12.85
2022-09-25T16:27:35.416Z,13.85
2022-09-25T16:29:40.692Z,14.15
2022-09-25T16:31:45.258Z,13.77
2022-09-25T16:33:52.527Z,13.55
2022-09-25T16:36:12.883Z,13.32
2022-09-25T16:38:28.189Z,14.00
2022-09-25T16:40:33.791Z,13.05
2022-09-25T16:42:40.385Z,13.63
2022-09-25T16:44:47.006Z,13.23
2022-09-25T16:47:06.341Z,14.50
2022-09-25T16:49:12.118Z,14.65
2022-09-25T16:51:26.755Z,14.18
2022-09-25T16:53:29.704Z,13.32
2022-09-25T16:55:34.113Z,13.23
2022-09-25T16:57:41.250Z,13.98
2022-09-25T16:59:46.364Z,15.05
2022-09-25T17:01:52.642Z,13.38
2022-09-25T17:03:59.777Z,13.55
2022-09-25T17:06:03.803Z,13.80
2022-09-25T17:08:16.251Z,12.80
2022-09-25T17:10:21.051Z,13.73
2022-09-25T17:12:26.545Z,11.63
2022-09-25T17:14:29.625Z,13.38
2022-09-25T17:16:32.311Z,13.15
2022-09-25T17:18:34.967Z,13.85
2022-09-25T17:20:37.812Z,11.85
2022-09-25T17:22:42.968Z,11.18
2022-09-25T17:24:45.639Z,11.93
2022-09-25T17:26:48.556Z,11.38
2022-09-25T17:28:51.752Z,11.13
2022-09-25T17:30:55.299Z,11.02
2022-09-25T17:32:57.932Z,11.00
2022-09-25T17:35:01.784Z,11.07
2022-09-25T17:37:04.343Z,11.50
2022-09-25T17:39:08.320Z,11.43
2022-09-25T17:41:19.508Z,10.80
2022-09-25T17:43:22.163Z,11.23
2022-09-25T17:45:31.853Z,10.23
2022-09-25T17:47:34.410Z,10.68
2022-09-25T17:49:37.428Z,10.98
2022-09-25T17:51:40.875Z,11.20
2022-09-25T17:53:44.324Z,11.43
2022-09-25T17:55:53.365Z,10.38
2022-09-25T17:57:56.380Z,10.25
2022-09-25T17:59:58.926Z,9.70
2022-09-25T18:02:02.001Z,9.85
2022-09-25T18:04:18.200Z,9.93
2022-09-25T18:06:21.536Z,10.65
2022-09-25T18:08:24.157Z,10.32
2022-09-25T18:10:28.832Z,10.60
2022-09-25T18:12:32.689Z,10.35
2022-09-25T18:14:35.258Z,10.88
2022-09-25T18:16:37.826Z,10.05
2022-09-25T18:18:57.932Z,10.05
2022-09-25T18:21:18.154Z,9.77
2022-09-25T18:23:20.725Z,11.13
2022-09-25T18:25:23.290Z,10.45
2022-09-25T18:27:28.856Z,9.98
2022-09-25T18:29:32.772Z,10.38
2022-09-25T18:31:36.611Z,9.63
2022-09-25T18:33:39.250Z,9.07
2022-09-25T18:35:42.828Z,8.27
2022-09-25T18:37:46.033Z,8.38
2022-09-25T18:39:48.619Z,7.47
2022-09-25T18:41:51.419Z,7.32
2022-09-25T18:43:54.006Z,7.93
2022-09-25T18:45:57.971Z,8.98
2022-09-25T18:48:00.562Z,7.95
2022-09-25T18:50:03.304Z,7.15
2022-09-25T18:52:05.924Z,7.22
2022-09-25T18:54:09.803Z,7.70
2022-09-25T18:56:12.619Z,7.60
2022-09-25T18:58:15.172Z,7.28
2022-09-25T19:00:18.147Z,6.43
2022-09-25T19:02:24.191Z,7.03
2022-09-25T19:04:27.316Z,6.40
2022-09-25T19:06:29.878Z,6.30
2022-09-25T19:08:34.138Z,6.85
2022-09-25T19:10:36.668Z,6.47
2022-09-25T19:12:39.294Z,6.60
2022-09-25T19:14:41.929Z,6.35
2022-09-25T19:16:46.161Z,7.35
2022-09-25T19:18:51.182Z,7.45
2022-09-25T19:20:54.767Z,8.10
2022-09-25T19:22:57.504Z,8.23
2022-09-25T19:25:00.323Z,8.02
2022-09-25T19:27:02.904Z,7.97
2022-09-25T19:29:06.175Z,7.57
2022-09-25T19:31:13.424Z,8.05
2022-09-25T19:33:16.066Z,8.20
2022-09-25T19:35:19.983Z,9.07
2022-09-25T19:37:25.307Z,8.55
2022-09-25T19:39:28.285Z,8.93
2022-09-25T19:41:33.298Z,10.23
2022-09-25T19:43:36.046Z,9.30
2022-09-25T19:45:38.583Z,8.27
2022-09-25T19:47:41.121Z,8.95
2022-09-25T19:49:43.654Z,8.57
2022-09-25T19:51:47.557Z,8.23
2022-09-25T19:53:50.296Z,8.02
2022-09-25T19:55:53.742Z,7.90
2022-09-25T19:57:56.545Z,7.90
2022-09-25T20:00:00.409Z,8.50
2022-09-25T20:02:03.616Z,8.57
2022-09-25T20:04:08.477Z,8.23
2022-09-25T20:06:12.678Z,8.60
2022-09-25T20:08:16.848Z,8.38
2022-09-25T20:10:20.794Z,9.00
2022-09-25T20:12:23.351Z,9.65
2022-09-25T20:14:26.282Z,8.48
2022-09-25T20:16:30.280Z,8.60
2022-09-25T20:18:33.368Z,9.32
2022-09-25T20:20:35.941Z,8.93
2022-09-25T20:22:38.578Z,9.35
2022-09-25T20:24:42.839Z,9.50
2022-09-25T20:26:45.568Z,9.30
2022-09-25T20:28:52.955Z,9.27
2022-09-25T20:30:55.931Z,9.95
2022-09-25T20:32:58.553Z,8.80
2022-09-25T20:35:01.328Z,9.38
2022-09-25T20:37:04.636Z,9.52
2022-09-25T20:39:07.388Z,9.10
2022-09-25T20:41:13.127Z,9.70
2022-09-25T20:43:15.710Z,9.15
2022-09-25T20:45:18.409Z,10.32
2022-09-25T20:47:21.631Z,9.95
2022-09-25T20:49:24.432Z,9.15
2022-09-25T20:51:29.307Z,9.10
2022-09-25T20:53:31.878Z,9.27
2022-09-25T20:55:38.611Z,9.90
2022-09-25T20:57:42.536Z,9.88
2022-09-25T20:59:45.167Z,9.70
2022-09-25T21:01:48.341Z,9.68
2022-09-25T21:03:54.320Z,8.38
2022-09-25T21:05:56.921Z,8.57
2022-09-25T21:07:59.465Z,8.65
2022-09-25T21:10:02.045Z,9.52
2022-09-25T21:12:05.785Z,9.50
2022-09-25T21:14:19.433Z,9.25
2022-09-25T21:16:23.405Z,9.85
2022-09-25T21:18:26.220Z,9.05
2022-09-25T21:20:28.794Z,9.70
2022-09-25T21:22:31.328Z,9.35
2022-09-25T21:24:34.396Z,9.43
2022-09-25T21:26:37.027Z,9.40
2022-09-25T21:28:41.154Z,10.88
2022-09-25T21:30:45.089Z,10.70
2022-09-25T21:32:48.083Z,9.50
2022-09-25T21:34:50.664Z,9.85
2022-09-25T21:36:53.247Z,9.45
2022-09-25T21:38:56.120Z,11.05
2022-09-25T21:41:01.744Z,9.57
2022-09-25T21:43:05.949Z,10.35
2022-09-25T21:45:10.332Z,10.10
2022-09-25T21:47:14.223Z,10.00
2022-09-25T21:49:18.670Z,10.05
2022-09-25T21:51:23.214Z,11.13
2022-09-25T21:53:26.864Z,10.77
2022-09-25T21:55:29.419Z,11.60
2022-09-25T21:57:31.985Z,10.85
2022-09-25T21:59:34.754Z,10.88
2022-09-25T22:01:39.993Z,10.98
2022-09-25T22:03:47.346Z,10.65
2022-09-25T22:05:49.929Z,10.60
2022-09-25T22:07:52.458Z,10.15
2022-09-25T22:09:55.007Z,10.80
2022-09-25T22:11:57.537Z,10.75
2022-09-25T22:14:00.698Z,11.68
2022-09-25T22:16:05.240Z,10.13
2022-09-25T22:18:07.773Z,10.05
2022-09-25T22:20:11.828Z,10.55
2022-09-25T22:22:14.389Z,9.80
2022-09-25T22:24:17.641Z,10.35
2022-09-25T22:26:21.408Z,11.20
2022-09-25T22:28:23.929Z,10.90
2022-09-25T22:30:26.811Z,10.90
2022-09-25T22:32:29.648Z,10.23
2022-09-25T22:34:32.342Z,11.02
2022-09-25T22:36:37.503Z,10.48
2022-09-25T22:38:40.831Z,9.93
2022-09-25T22:40:43.615Z,9.23
2022-09-25T22:42:46.231Z,9.95
2022-09-25T22:44:48.768Z,9.77
2022-09-25T22:46:51.395Z,9.35
2022-09-25T22:48:53.965Z,9.80
2022-09-25T22:50:58.295Z,10.10
2022-09-25T22:53:02.253Z,9.45
2022-09-25T22:55:05.265Z,9.45
2022-09-25T22:57:07.813Z,10.15
2022-09-25T22:59:13.666Z,10.63
2022-09-25T23:01:20.087Z,9.95
2022-09-25T23:03:24.762Z,10.25
2022-09-25T23:05:27.465Z,10.02
2022-09-25T23:07:30.081Z,10.38
2022-09-25T23:09:33.980Z,10.23
2022-09-25T23:11:36.585Z,10.10
2022-09-25T23:13:39.109Z,10.45
2022-09-25T23:15:41.668Z,10.45
2022-09-25T23:17:44.219Z,10.10
2022-09-25T23:19:46.771Z,9.90
2022-09-25T23:21:49.685Z,10.18
2022-09-25T23:23:56.201Z,9.77
2022-09-25T23:26:05.950Z,9.48
2022-09-25T23:28:08.515Z,10.23
2022-09-25T23:30:11.694Z,10.95
2022-09-25T23:32:14.268Z,10.05
2022-09-25T23:34:17.053Z,9.82
2022-09-25T23:36:21.537Z,10.43
2022-09-25T23:38:24.244Z,9.93
2022-09-25T23:40:27.245Z,10.45
2022-09-25T23:42:31.378Z,10.30
2022-09-25T23:44:34.118Z,9.98
2022-09-25T23:46:39.805Z,10.65
2022-09-25T23:48:43.183Z,10.43
2022-09-25T23:50:45.746Z,10.90
2022-09-25T23:52:48.300Z,10.32
2022-09-25T23:54:50.866Z,10.90
2022-09-25T23:56:56.608Z,11.48
2022-09-25T23:59:02.095Z,10.95
